createdAt,value
2022-09-17T00:00:31.697Z,100314.44
2022-09-17T00:03:02.177Z,100310.94
2022-09-17T00:05:31.670Z,100318.84
2022-09-17T00:08:04.038Z,100306.72
2022-09-17T00:10:33.446Z,100318.75
2022-09-17T00:13:02.831Z,100316.81
2022-09-17T00:15:32.281Z,100315.06
2022-09-17T00:18:01.875Z,100313.22
2022-09-17T00:20:31.731Z,100345.88
2022-09-17T00:23:03.670Z,100329.75
2022-09-17T00:25:33.054Z,100336.72
2022-09-17T00:28:02.457Z,100345.16
2022-09-17T00:30:31.857Z,100332.34
2022-09-17T00:33:01.318Z,100341.78
2022-09-17T00:35:31.024Z,100329.59
2022-09-17T00:38:03.048Z,100337.25
2022-09-17T00:40:32.567Z,100340.56
2022-09-17T00:43:02.233Z,100347.28
2022-09-17T00:45:32.559Z,100349.75
2022-09-17T00:48:03.446Z,100342.69
2022-09-17T00:50:36.108Z,100329.78
2022-09-17T00:53:10.806Z,100358.88
2022-09-17T00:55:42.396Z,100330.47
2022-09-17T00:58:14.206Z,100353.53
2022-09-17T01:00:43.924Z,100363.84
2022-09-17T01:03:13.346Z,100333.72
2022-09-17T01:05:48.826Z,100345.63
2022-09-17T01:08:26.692Z,100347.28
2022-09-17T01:11:10.733Z,100320.53
2022-09-17T01:13:51.173Z,100330.75
2022-09-17T01:16:23.513Z,100336.84
2022-09-17T01:19:03.046Z,100329.69
2022-09-17T01:21:40.902Z,100327.13
2022-09-17T01:24:45.830Z,100353.84
2022-09-17T01:27:45.991Z,100331.34
2022-09-17T01:30:33.157Z,100320.13
2022-09-17T01:33:08.091Z,100326.06
2022-09-17T01:35:43.254Z,100315.88
2022-09-17T01:38:15.931Z,100319.16
2022-09-17T01:40:52.265Z,100307.94
2022-09-17T01:43:25.801Z,100305.34
2022-09-17T01:46:01.131Z,100323.25
2022-09-17T01:48:34.859Z,100322.56
2022-09-17T01:51:08.681Z,100312.38
2022-09-17T01:53:41.333Z,100317.53
2022-09-17T01:56:12.216Z,100309.84
2022-09-17T01:58:46.026Z,100309.97
2022-09-17T02:01:19.929Z,100298.69
2022-09-17T02:03:52.794Z,100292.03
2022-09-17T02:06:24.770Z,100299.63
2022-09-17T02:08:56.614Z,100289.91
2022-09-17T02:11:26.401Z,100279.66
2022-09-17T02:13:58.723Z,100297.69
2022-09-17T02:16:32.836Z,100290.00
2022-09-17T02:19:06.509Z,100292.56
2022-09-17T02:21:39.535Z,100280.53
2022-09-17T02:24:11.914Z,100296.56
2022-09-17T02:26:45.422Z,100281.25
2022-09-17T02:29:17.079Z,100281.34
2022-09-17T02:31:49.135Z,100271.03
2022-09-17T02:34:18.629Z,100271.88
2022-09-17T02:36:48.010Z,100278.91
2022-09-17T02:39:17.625Z,100279.66
2022-09-17T02:41:52.797Z,100295.28
2022-09-17T02:44:29.601Z,100296.94
2022-09-17T02:47:15.454Z,100292.88
2022-09-17T02:50:01.473Z,100300.31
2022-09-17T02:52:35.777Z,100301.09
2022-09-17T02:55:12.884Z,100305.34
2022-09-17T02:57:46.877Z,100305.34
2022-09-17T03:00:18.014Z,100311.50
2022-09-17T03:02:53.053Z,100308.00
2022-09-17T03:05:24.064Z,100313.38
2022-09-17T03:07:53.585Z,100299.38
2022-09-17T03:10:22.973Z,100301.09
2022-09-17T03:12:52.400Z,100295.94
2022-09-17T03:15:21.855Z,100314.00
2022-09-17T03:17:53.918Z,100310.44
2022-09-17T03:20:23.395Z,100314.81
2022-09-17T03:22:54.457Z,100320.81
2022-09-17T03:25:24.034Z,100325.38
2022-09-17T03:27:53.492Z,100319.41
2022-09-17T03:30:22.888Z,100321.16
2022-09-17T03:32:54.842Z,100316.78
2022-09-17T03:35:24.234Z,100325.13
2022-09-17T03:37:53.650Z,100323.63
2022-09-17T03:40:23.101Z,100334.84
2022-09-17T03:42:52.529Z,100328.69
2022-09-17T03:45:21.969Z,100334.81
2022-09-17T03:47:53.930Z,100332.16
2022-09-17T03:50:23.294Z,100329.44
2022-09-17T03:52:52.900Z,100336.25
2022-09-17T03:55:23.150Z,100331.22
2022-09-17T03:57:52.645Z,100333.84
2022-09-17T04:00:23.561Z,100340.66
2022-09-17T04:02:55.627Z,100346.91
2022-09-17T04:05:25.117Z,100342.72
2022-09-17T04:07:54.507Z,100357.19
2022-09-17T04:10:23.875Z,100344.03
2022-09-17T04:12:53.302Z,100344.97
2022-09-17T04:15:22.770Z,100343.16
2022-09-17T04:17:55.640Z,100339.75
2022-09-17T04:20:25.014Z,100347.31
2022-09-17T04:22:54.775Z,100337.84
2022-09-17T04:25:24.217Z,100341.16
2022-09-17T04:27:53.658Z,100352.38
2022-09-17T04:30:23.254Z,100352.38
2022-09-17T04:32:55.209Z,100353.09
2022-09-17T04:35:24.610Z,100360.13
2022-09-17T04:37:57.615Z,100366.91
2022-09-17T04:40:27.985Z,100386.69
2022-09-17T04:42:59.429Z,100381.44
2022-09-17T04:45:29.607Z,100369.13
2022-09-17T04:48:01.903Z,100382.84
2022-09-17T04:50:31.452Z,100373.88
2022-09-17T04:53:00.938Z,100379.72
2022-09-17T04:55:31.243Z,100383.09
2022-09-17T04:58:00.766Z,100378.84
2022-09-17T05:00:30.379Z,100380.34
2022-09-17T05:03:02.351Z,100385.41
2022-09-17T05:05:32.018Z,100389.69
2022-09-17T05:08:01.500Z,100385.97
2022-09-17T05:10:31.023Z,100395.53
2022-09-17T05:13:00.598Z,100402.25
2022-09-17T05:15:30.158Z,100409.03
2022-09-17T05:18:02.107Z,100407.25
2022-09-17T05:20:31.496Z,100396.66
2022-09-17T05:23:00.914Z,100405.31
2022-09-17T05:25:31.002Z,100406.22
2022-09-17T05:28:01.295Z,100427.97
2022-09-17T05:30:30.669Z,100427.16
2022-09-17T05:33:07.529Z,100420.09
2022-09-17T05:35:37.932Z,100431.56
2022-09-17T05:38:08.525Z,100427.97
2022-09-17T05:40:38.434Z,100432.19
2022-09-17T05:43:09.259Z,100429.72
2022-09-17T05:45:39.210Z,100441.69
2022-09-17T05:48:15.553Z,100434.94
2022-09-17T05:50:44.978Z,100432.44
2022-09-17T05:53:15.507Z,100444.34
2022-09-17T05:55:45.079Z,100446.00
2022-09-17T05:58:15.262Z,100442.59
2022-09-17T06:00:48.791Z,100446.84
2022-09-17T06:03:22.683Z,100436.06
2022-09-17T06:05:58.159Z,100437.44
2022-09-17T06:08:29.040Z,100441.47
2022-09-17T06:11:02.267Z,100448.50
2022-09-17T06:13:31.948Z,100445.72
2022-09-17T06:16:01.472Z,100438.13
2022-09-17T06:18:34.324Z,100441.66
2022-09-17T06:21:05.583Z,100445.34
2022-09-17T06:23:37.268Z,100433.94
2022-09-17T06:26:08.113Z,100432.31
2022-09-17T06:28:41.529Z,100438.13
2022-09-17T06:31:12.490Z,100437.84
2022-09-17T06:33:44.608Z,100430.81
2022-09-17T06:36:14.916Z,100426.22
2022-09-17T06:38:44.858Z,100422.91
2022-09-17T06:41:16.907Z,100414.16
2022-09-17T06:43:46.418Z,100425.25
2022-09-17T06:46:15.869Z,100448.75
2022-09-17T06:48:47.866Z,100440.69
2022-09-17T06:51:17.338Z,100424.38
2022-09-17T06:53:46.826Z,100421.13
2022-09-17T06:56:16.230Z,100422.81
2022-09-17T06:58:45.645Z,100425.09
2022-09-17T07:01:16.003Z,100420.78
2022-09-17T07:03:49.736Z,100411.75
2022-09-17T07:06:19.138Z,100411.19
2022-09-17T07:08:48.534Z,100404.34
2022-09-17T07:11:18.725Z,100398.44
2022-09-17T07:13:48.369Z,100378.38
2022-09-17T07:16:17.814Z,100372.66
2022-09-17T07:18:49.848Z,100372.72
2022-09-17T07:21:19.210Z,100361.59
2022-09-17T07:23:48.672Z,100340.00
2022-09-17T07:26:19.133Z,100338.25
2022-09-17T07:28:49.114Z,100317.34
2022-09-17T07:31:18.686Z,100318.22
2022-09-17T07:33:50.678Z,100289.91
2022-09-17T07:36:20.335Z,100290.78
2022-09-17T07:38:49.865Z,100276.09
2022-09-17T07:41:20.235Z,100258.19
2022-09-17T07:43:49.621Z,100247.28
2022-09-17T07:46:20.941Z,100264.31
2022-09-17T07:48:54.132Z,100255.84
2022-09-17T07:51:24.830Z,100249.41
2022-09-17T07:53:54.630Z,100238.56
2022-09-17T07:56:24.436Z,100229.72
2022-09-17T07:58:54.511Z,100230.75
2022-09-17T08:01:23.939Z,100227.25
2022-09-17T08:03:57.304Z,100209.47
2022-09-17T08:06:28.634Z,100204.69
2022-09-17T08:08:58.443Z,100186.72
2022-09-17T08:11:54.428Z,100183.41
2022-09-17T08:14:19.482Z,100168.16
2022-09-17T08:16:49.018Z,100149.47
2022-09-17T08:19:22.263Z,100138.59
2022-09-17T08:21:52.191Z,100129.19
2022-09-17T08:24:21.549Z,100095.78
2022-09-17T08:26:50.959Z,100086.59
2022-09-17T08:29:20.335Z,100071.31
2022-09-17T08:31:50.144Z,100068.13
2022-09-17T08:34:22.174Z,100056.16
2022-09-17T08:36:51.567Z,100027.25
2022-09-17T08:39:21.030Z,100012.22
2022-09-17T08:41:58.273Z,99993.00
2022-09-17T08:44:29.796Z,99966.91
2022-09-17T08:47:06.307Z,99962.50
2022-09-17T08:49:43.330Z,99943.06
2022-09-17T08:52:30.130Z,99932.75
2022-09-17T08:55:04.267Z,99942.44
2022-09-17T08:57:40.558Z,99957.00
2022-09-17T09:00:13.530Z,99954.91
2022-09-17T09:02:52.627Z,99970.09
2022-09-17T09:05:27.323Z,99988.25
2022-09-17T09:08:00.663Z,100001.78
2022-09-17T09:10:32.675Z,100002.38
2022-09-17T09:13:03.153Z,100041.03
2022-09-17T09:15:38.450Z,100024.41
2022-09-17T09:18:18.763Z,100034.34
2022-09-17T09:20:55.625Z,100019.31
2022-09-17T09:23:31.729Z,100019.16
2022-09-17T09:26:08.374Z,100019.50
2022-09-17T09:28:56.633Z,99989.69
2022-09-17T09:31:56.473Z,99974.78
2022-09-17T09:34:26.497Z,99984.09
2022-09-17T09:37:05.233Z,99988.63
2022-09-17T09:39:41.436Z,99959.97
2022-09-17T09:42:19.283Z,99933.22
2022-09-17T09:44:48.741Z,99925.13
2022-09-17T09:47:28.954Z,99915.84
2022-09-17T09:50:08.272Z,99909.19
2022-09-17T09:52:51.841Z,99898.09
2022-09-17T09:55:33.863Z,99881.13
2022-09-17T09:58:09.675Z,99878.41
2022-09-17T10:00:42.791Z,99871.59
2022-09-17T10:03:16.142Z,99874.72
2022-09-17T10:05:56.036Z,99861.38
2022-09-17T10:08:28.557Z,99867.19
2022-09-17T10:11:03.763Z,99867.41
2022-09-17T10:13:35.687Z,99849.47
2022-09-17T10:16:20.455Z,99846.00
2022-09-17T10:18:51.314Z,99853.06
2022-09-17T10:21:25.023Z,99844.03
2022-09-17T10:23:57.413Z,99841.34
2022-09-17T10:26:28.820Z,99833.03
2022-09-17T10:29:00.808Z,99840.03
2022-09-17T10:31:30.987Z,99838.13
2022-09-17T10:34:01.357Z,99838.72
2022-09-17T10:36:44.958Z,99839.94
2022-09-17T10:39:34.078Z,99830.88
2022-09-17T10:42:04.950Z,99836.75
2022-09-17T10:44:35.773Z,99826.38
2022-09-17T10:47:08.312Z,99830.19
2022-09-17T10:49:41.426Z,99827.97
2022-09-17T10:52:27.433Z,99834.06
2022-09-17T10:55:17.642Z,99823.00
2022-09-17T10:57:56.949Z,99811.34
2022-09-17T11:00:26.816Z,99819.13
2022-09-17T11:03:28.642Z,99806.41
2022-09-17T11:06:14.276Z,99794.44
2022-09-17T11:08:51.471Z,99800.19
2022-09-17T11:11:35.010Z,99806.13
2022-09-17T11:14:12.166Z,99800.91
2022-09-17T11:16:44.463Z,99798.91
2022-09-17T11:19:24.978Z,99798.38
2022-09-17T11:21:55.961Z,99785.13
2022-09-17T11:24:48.851Z,99795.78
2022-09-17T11:27:30.017Z,99798.63
2022-09-17T11:30:07.541Z,99800.00
2022-09-17T11:32:56.961Z,99802.94
2022-09-17T11:35:29.234Z,99806.06
2022-09-17T11:38:01.880Z,99791.44
2022-09-17T11:40:37.935Z,99796.25
2022-09-17T11:43:17.598Z,99795.69
2022-09-17T11:45:54.961Z,99802.97
2022-09-17T11:48:27.231Z,99795.78
2022-09-17T11:51:00.297Z,99788.72
2022-09-17T11:53:34.658Z,99791.09
2022-09-17T11:56:06.839Z,99793.88
2022-09-17T11:58:42.661Z,99785.59
2022-09-17T12:01:15.919Z,99789.53
2022-09-17T12:03:48.034Z,99790.66
2022-09-17T12:06:19.500Z,99777.88
2022-09-17T12:08:56.210Z,99779.34
2022-09-17T12:11:29.604Z,99779.22
2022-09-17T12:14:06.001Z,99770.88
2022-09-17T12:16:39.622Z,99768.59
2022-09-17T12:19:15.449Z,99771.91
2022-09-17T12:21:48.679Z,99760.56
2022-09-17T12:24:23.608Z,99744.38
2022-09-17T12:27:08.989Z,99744.06
2022-09-17T12:30:07.021Z,99745.41
2022-09-17T12:33:05.916Z,99736.78
2022-09-17T12:36:04.374Z,99732.03
2022-09-17T12:38:58.423Z,99725.25
2022-09-17T12:41:38.069Z,99723.56
2022-09-17T12:44:19.489Z,99734.06
2022-09-17T12:47:02.730Z,99722.84
2022-09-17T12:49:43.823Z,99715.81
2022-09-17T12:52:17.315Z,99722.78
2022-09-17T12:55:11.121Z,99724.97
2022-09-17T12:57:45.179Z,99728.41
2022-09-17T13:00:15.920Z,99730.03
2022-09-17T13:02:51.570Z,99729.66
2022-09-17T13:05:36.292Z,99713.63
2022-09-17T13:08:18.519Z,99703.56
2022-09-17T13:10:59.054Z,99713.13
2022-09-17T13:13:36.652Z,99702.28
2022-09-17T13:16:14.385Z,99713.00
2022-09-17T13:19:14.941Z,99716.75
2022-09-17T13:21:46.798Z,99751.69
2022-09-17T13:24:20.266Z,99749.09
2022-09-17T13:26:49.700Z,99744.50
2022-09-17T13:29:48.981Z,99747.34
2022-09-17T13:32:49.202Z,99775.31
2022-09-17T13:35:52.521Z,99793.94
2022-09-17T13:38:23.980Z,99783.81
2022-09-17T13:40:54.100Z,99759.00
2022-09-17T13:43:27.929Z,99740.50
2022-09-17T13:46:12.990Z,99772.47
2022-09-17T13:48:54.742Z,99787.88
2022-09-17T13:51:59.805Z,99805.50
2022-09-17T13:54:41.425Z,99811.38
2022-09-17T13:57:16.098Z,99787.28
2022-09-17T13:59:57.080Z,99768.41
2022-09-17T14:02:35.293Z,99755.91
2022-09-17T14:05:24.717Z,99744.66
2022-09-17T14:07:56.115Z,99753.22
2022-09-17T14:10:43.275Z,99753.88
2022-09-17T14:13:44.964Z,99749.88
2022-09-17T14:16:37.180Z,99742.28
2022-09-17T14:19:32.272Z,99740.91
2022-09-17T14:22:04.397Z,99742.81
2022-09-17T14:24:49.006Z,99736.22
2022-09-17T14:27:40.010Z,99731.19
2022-09-17T14:30:17.274Z,99757.31
2022-09-17T14:32:55.731Z,99759.13
2022-09-17T14:35:27.469Z,99769.78
2022-09-17T14:38:00.039Z,99774.81
2022-09-17T14:40:29.990Z,99783.78
2022-09-17T14:43:02.239Z,99776.16
2022-09-17T14:45:34.699Z,99779.34
2022-09-17T14:48:32.694Z,99781.97
2022-09-17T14:51:29.022Z,99786.31
2022-09-17T14:54:26.269Z,99781.44
2022-09-17T14:56:58.226Z,99783.84
2022-09-17T14:59:41.852Z,99791.31
2022-09-17T15:02:33.477Z,99787.66
2022-09-17T15:05:04.206Z,99792.00
2022-09-17T15:07:33.601Z,99788.50
2022-09-17T15:10:11.582Z,99791.41
2022-09-17T15:12:42.353Z,99789.75
2022-09-17T15:15:20.237Z,99790.50
2022-09-17T15:17:50.637Z,99779.94
2022-09-17T15:20:23.238Z,99786.44
2022-09-17T15:22:57.766Z,99778.94
2022-09-17T15:25:28.659Z,99780.88
2022-09-17T15:28:00.178Z,99770.72
2022-09-17T15:30:32.242Z,99780.53
2022-09-17T15:33:02.358Z,99788.09
2022-09-17T15:35:32.364Z,99797.28
2022-09-17T15:38:22.123Z,99800.66
2022-09-17T15:40:52.502Z,99797.72
2022-09-17T15:43:28.913Z,99784.50
2022-09-17T15:46:01.554Z,99797.81
2022-09-17T15:48:40.720Z,99804.81
2022-09-17T15:51:26.294Z,99805.09
2022-09-17T15:53:56.817Z,99802.41
2022-09-17T15:56:27.932Z,99809.63
2022-09-17T15:59:01.485Z,99817.06
2022-09-17T16:01:57.720Z,99817.66
2022-09-17T16:04:33.873Z,99820.03
2022-09-17T16:07:06.270Z,99818.75
2022-09-17T16:09:45.865Z,99817.13
2022-09-17T16:12:17.213Z,99823.97
2022-09-17T16:14:51.166Z,99824.53
2022-09-17T16:17:33.156Z,99836.13
2022-09-17T16:20:06.405Z,99830.59
2022-09-17T16:22:35.977Z,99836.75
2022-09-17T16:25:05.462Z,99839.69
2022-09-17T16:27:45.998Z,99849.25
2022-09-17T16:30:18.275Z,99850.38
2022-09-17T16:32:50.626Z,99853.59
2022-09-17T16:35:21.322Z,99855.38
2022-09-17T16:37:51.566Z,99869.59
2022-09-17T16:40:21.551Z,99866.22
2022-09-17T16:42:51.272Z,99865.47
2022-09-17T16:45:25.388Z,99863.06
2022-09-17T16:48:00.401Z,99864.31
2022-09-17T16:50:29.881Z,99868.63
2022-09-17T16:53:02.864Z,99859.69
2022-09-17T16:55:34.404Z,99871.47
2022-09-17T16:58:03.753Z,99876.09
2022-09-17T17:00:33.279Z,99885.38
2022-09-17T17:03:06.860Z,99882.94
2022-09-17T17:05:39.515Z,99887.25
2022-09-17T17:08:09.450Z,99894.25
2022-09-17T17:10:40.625Z,99890.78
2022-09-17T17:13:10.047Z,99902.06
2022-09-17T17:15:39.462Z,99913.94
2022-09-17T17:18:11.466Z,99920.56
2022-09-17T17:20:40.846Z,99910.28
2022-09-17T17:23:10.245Z,99908.53
2022-09-17T17:25:39.636Z,99906.13
2022-09-17T17:28:09.046Z,99910.13
2022-09-17T17:30:38.508Z,99910.13
2022-09-17T17:33:07.958Z,99918.72
2022-09-17T17:35:41.570Z,99921.06
2022-09-17T17:38:11.301Z,99924.88
2022-09-17T17:40:40.808Z,99918.53
2022-09-17T17:43:10.258Z,99935.50
2022-09-17T17:45:39.661Z,99932.25
2022-09-17T17:48:09.146Z,99939.81
2022-09-17T17:50:41.109Z,99942.19
2022-09-17T17:53:10.511Z,99942.84
2022-09-17T17:55:39.873Z,99945.44
2022-09-17T17:58:09.278Z,99949.53
2022-09-17T18:00:38.629Z,99955.47
2022-09-17T18:03:08.304Z,99953.81
2022-09-17T18:05:37.710Z,99965.59
2022-09-17T18:08:09.706Z,99969.91
2022-09-17T18:10:39.109Z,99972.63
2022-09-17T18:13:08.466Z,99979.28
2022-09-17T18:15:37.906Z,99978.19
2022-09-17T18:18:07.501Z,99976.59
2022-09-17T18:20:36.885Z,99981.69
2022-09-17T18:23:08.866Z,99986.72
2022-09-17T18:25:38.269Z,100005.16
2022-09-17T18:28:07.744Z,100001.06
2022-09-17T18:30:38.990Z,100013.47
2022-09-17T18:33:08.346Z,100012.38
2022-09-17T18:35:38.865Z,100017.63
2022-09-17T18:38:10.802Z,100017.50
2022-09-17T18:40:40.315Z,100027.63
2022-09-17T18:43:10.111Z,100036.25
2022-09-17T18:45:39.492Z,100031.19
2022-09-17T18:48:09.389Z,100031.88
2022-09-17T18:50:39.686Z,100033.56
2022-09-17T18:53:11.647Z,100037.09
2022-09-17T18:55:41.026Z,100029.09
2022-09-17T18:58:10.409Z,100033.50
2022-09-17T19:00:42.765Z,100042.97
2022-09-17T19:03:12.181Z,100047.19
2022-09-17T19:05:41.566Z,100048.97
2022-09-17T19:08:15.114Z,100053.13
2022-09-17T19:10:44.486Z,100057.44
2022-09-17T19:13:13.843Z,100054.88
2022-09-17T19:15:43.293Z,100052.34
2022-09-17T19:18:12.695Z,100051.47
2022-09-17T19:20:42.093Z,100053.97
2022-09-17T19:23:14.170Z,100062.47
2022-09-17T19:25:43.590Z,100056.63
2022-09-17T19:28:12.966Z,100067.00
2022-09-17T19:30:42.382Z,100065.31
2022-09-17T19:33:11.825Z,100061.47
2022-09-17T19:35:41.225Z,100062.78
2022-09-17T19:38:13.407Z,100052.75
2022-09-17T19:40:45.540Z,100049.72
2022-09-17T19:43:15.074Z,100043.50
2022-09-17T19:45:44.431Z,100043.00
2022-09-17T19:48:13.793Z,100044.72
2022-09-17T19:50:53.029Z,100041.75
2022-09-17T19:53:22.456Z,100035.47
2022-09-17T19:55:54.460Z,100039.41
2022-09-17T19:58:24.227Z,100040.53
2022-09-17T20:00:58.901Z,100042.22
2022-09-17T20:03:29.574Z,100043.75
2022-09-17T20:06:02.471Z,100049.63
2022-09-17T20:08:31.857Z,100048.69
2022-09-17T20:11:10.081Z,100048.78
2022-09-17T20:13:39.565Z,100054.69
2022-09-17T20:16:10.560Z,100052.09
2022-09-17T20:18:40.160Z,100055.50
2022-09-17T20:21:10.761Z,100056.28
2022-09-17T20:23:40.237Z,100053.63
2022-09-17T20:26:12.729Z,100050.13
2022-09-17T20:28:42.333Z,100044.00
2022-09-17T20:31:14.687Z,100051.56
2022-09-17T20:33:44.373Z,100052.28
2022-09-17T20:36:15.367Z,100051.34
2022-09-17T20:41:37.025Z,100060.56
2022-09-17T20:44:06.593Z,100062.19
2022-09-17T20:46:36.224Z,100062.84
2022-09-17T20:49:05.878Z,100062.84
2022-09-17T20:51:35.422Z,100072.47
2022-09-17T20:54:04.876Z,100067.09
2022-09-17T20:56:37.605Z,100067.13
2022-09-17T20:59:14.389Z,100069.75
2022-09-17T21:01:45.104Z,100075.88
2022-09-17T21:04:17.007Z,100074.19
2022-09-17T21:06:47.030Z,100076.00
2022-09-17T21:09:18.229Z,100077.69
2022-09-17T21:11:51.677Z,100069.22
2022-09-17T21:14:21.136Z,100073.53
2022-09-17T21:16:50.605Z,100066.69
2022-09-17T21:19:20.774Z,100057.25
2022-09-17T21:21:51.730Z,100051.47
2022-09-17T21:24:21.125Z,100048.06
2022-09-17T21:26:54.190Z,100057.44
2022-09-17T21:29:23.632Z,100046.19
2022-09-17T21:31:54.315Z,100059.06
2022-09-17T21:34:23.753Z,100048.97
2022-09-17T21:36:53.122Z,100060.00
2022-09-17T21:39:22.509Z,100053.22
2022-09-17T21:41:54.674Z,100045.53
2022-09-17T21:44:24.046Z,100047.22
2022-09-17T21:46:56.952Z,100046.41
2022-09-17T21:49:26.549Z,100048.97
2022-09-17T21:51:55.923Z,100049.03
2022-09-17T21:54:25.327Z,100049.94
2022-09-17T21:56:59.262Z,100055.88
2022-09-17T21:59:29.863Z,100051.63
2022-09-17T22:01:59.321Z,100051.47
2022-09-17T22:04:28.776Z,100056.69
2022-09-17T22:06:59.237Z,100040.53
2022-09-17T22:09:30.245Z,100056.00
2022-09-17T22:12:02.831Z,100050.16
2022-09-17T22:14:32.323Z,100057.91
2022-09-17T22:17:01.703Z,100054.50
2022-09-17T22:19:31.149Z,100065.69
2022-09-17T22:22:00.621Z,100064.03
2022-09-17T22:24:30.425Z,100064.03
2022-09-17T22:27:02.432Z,100069.16
2022-09-17T22:29:32.228Z,100081.13
2022-09-17T22:32:01.598Z,100073.91
2022-09-17T22:34:31.030Z,100078.97
2022-09-17T22:37:00.593Z,100085.59
2022-09-17T22:39:30.009Z,100084.00
2022-09-17T22:42:02.017Z,100087.38
2022-09-17T22:44:31.396Z,100094.97
2022-09-17T22:47:00.773Z,100093.97
2022-09-17T22:49:30.237Z,100097.84
2022-09-17T22:51:59.631Z,100097.56
2022-09-17T22:54:29.050Z,100097.31
2022-09-17T22:56:58.466Z,100098.13
2022-09-17T22:59:30.438Z,100102.31
2022-09-17T23:01:59.865Z,100098.81
2022-09-17T23:04:29.345Z,100109.72
2022-09-17T23:06:58.707Z,100101.00
2022-09-17T23:09:28.101Z,100109.47
2022-09-17T23:11:57.506Z,100104.19
2022-09-17T23:14:26.926Z,100104.25
2022-09-17T23:16:58.912Z,100100.69
2022-09-17T23:19:29.133Z,100105.84
2022-09-17T23:21:58.527Z,100105.91
2022-09-17T23:24:27.895Z,100106.84
2022-09-17T23:26:57.270Z,100107.59
2022-09-17T23:29:26.667Z,100112.97
2022-09-17T23:31:56.034Z,100102.03
2022-09-17T23:34:27.990Z,100108.81
2022-09-17T23:36:57.351Z,100110.53
2022-09-17T23:39:29.564Z,100109.59
2022-09-17T23:41:59.574Z,100113.88
2022-09-17T23:44:29.026Z,100107.25
2022-09-17T23:46:58.420Z,100109.59
2022-09-17T23:49:30.518Z,100109.00
2022-09-17T23:51:59.874Z,100114.09
2022-09-17T23:54:29.234Z,100114.09
2022-09-17T23:56:58.613Z,100116.59
2022-09-17T23:59:28.089Z,100120.09
